sensor_id;sensor_type;location;lat;lon;timestamp;pressure;altitude;pressure_sealevel;temperature;humidity
63622;BME280;49770;47.544;19.074;2022-08-19T04:31:31;99875.53;;;23.16;69.10
63622;BME280;49770;47.544;19.074;2022-08-19T04:34:37;99864.06;;;22.72;70.48
63622;BME280;49770;47.544;19.074;2022-08-19T04:38:00;99866.59;;;22.82;69.82
63622;BME280;49770;47.544;19.074;2022-08-19T04:41:03;99866.59;;;22.99;69.54
63622;BME280;49770;47.544;19.074;2022-08-19T04:44:24;99873.34;;;23.20;68.78
63622;BME280;49770;47.544;19.074;2022-08-19T04:47:27;99879.25;;;23.23;68.34
63622;BME280;49770;47.544;19.074;2022-08-19T04:50:52;99886.37;;;23.33;68.63
63622;BME280;49770;47.544;19.074;2022-08-19T04:54:01;99881.25;;;23.46;67.92
63622;BME280;49770;47.544;19.074;2022-08-19T04:57:07;99880.56;;;23.52;67.54
63622;BME280;49770;47.544;19.074;2022-08-19T05:00:11;99879.59;;;23.45;66.22
63622;BME280;49770;47.544;19.074;2022-08-19T05:03:16;99876.50;;;23.48;66.17
63622;BME280;49770;47.544;19.074;2022-08-19T05:06:20;99874.47;;;23.59;66.44
63622;BME280;49770;47.544;19.074;2022-08-19T05:09:24;99866.94;;;23.77;65.54
63622;BME280;49770;47.544;19.074;2022-08-19T05:12:27;99874.19;;;23.85;65.04
63622;BME280;49770;47.544;19.074;2022-08-19T05:15:31;99877.50;;;23.95;64.01
63622;BME280;49770;47.544;19.074;2022-08-19T05:18:34;99880.00;;;24.14;64.23
63622;BME280;49770;47.544;19.074;2022-08-19T05:21:55;99873.50;;;24.23;62.28
63622;BME280;49770;47.544;19.074;2022-08-19T05:25:18;99874.94;;;24.42;63.05
63622;BME280;49770;47.544;19.074;2022-08-19T05:28:22;99884.25;;;24.63;63.62
63622;BME280;49770;47.544;19.074;2022-08-19T05:31:25;99882.47;;;24.79;62.32
63622;BME280;49770;47.544;19.074;2022-08-19T05:34:28;99876.44;;;24.92;62.31
63622;BME280;49770;47.544;19.074;2022-08-19T05:37:30;99867.31;;;25.23;61.81
63622;BME280;49770;47.544;19.074;2022-08-19T05:40:35;99871.37;;;25.42;61.34
63622;BME280;49770;47.544;19.074;2022-08-19T05:43:40;99877.88;;;25.71;59.19
63622;BME280;49770;47.544;19.074;2022-08-19T05:46:44;99874.00;;;25.80;58.43
63622;BME280;49770;47.544;19.074;2022-08-19T05:49:49;99878.81;;;26.15;57.79
63622;BME280;49770;47.544;19.074;2022-08-19T05:52:55;99880.03;;;26.28;58.33
63622;BME280;49770;47.544;19.074;2022-08-19T05:55:58;99884.06;;;26.17;57.50
63622;BME280;49770;47.544;19.074;2022-08-19T05:59:00;99887.66;;;26.17;56.88
63622;BME280;49770;47.544;19.074;2022-08-19T06:02:04;99886.41;;;26.35;54.94
63622;BME280;49770;47.544;19.074;2022-08-19T06:05:08;99880.06;;;26.49;54.28
63622;BME280;49770;47.544;19.074;2022-08-19T06:08:11;99880.97;;;26.78;54.49
63622;BME280;49770;47.544;19.074;2022-08-19T06:11:31;99880.78;;;27.02;53.51
63622;BME280;49770;47.544;19.074;2022-08-19T06:14:35;99880.44;;;27.12;54.46
63622;BME280;49770;47.544;19.074;2022-08-19T06:17:43;99878.91;;;27.60;52.66
63622;BME280;49770;47.544;19.074;2022-08-19T06:20:49;99883.88;;;27.98;50.59
63622;BME280;49770;47.544;19.074;2022-08-19T06:23:57;99873.53;;;28.29;49.35
63622;BME280;49770;47.544;19.074;2022-08-19T06:27:00;99882.78;;;28.34;49.42
63622;BME280;49770;47.544;19.074;2022-08-19T06:30:04;99888.88;;;28.50;47.72
63622;BME280;49770;47.544;19.074;2022-08-19T06:33:07;99881.59;;;28.71;47.99
63622;BME280;49770;47.544;19.074;2022-08-19T06:36:20;99872.16;;;28.94;47.58
63622;BME280;49770;47.544;19.074;2022-08-19T06:39:32;99863.16;;;28.93;46.51
63622;BME280;49770;47.544;19.074;2022-08-19T06:42:36;99861.47;;;28.92;46.20
63622;BME280;49770;47.544;19.074;2022-08-19T06:45:44;99858.94;;;29.04;46.80
63622;BME280;49770;47.544;19.074;2022-08-19T06:48:49;99863.75;;;29.22;45.70
63622;BME280;49770;47.544;19.074;2022-08-19T06:51:52;99871.91;;;29.49;44.83
63622;BME280;49770;47.544;19.074;2022-08-19T06:54:55;99865.13;;;29.72;44.67
63622;BME280;49770;47.544;19.074;2022-08-19T06:58:02;99863.59;;;30.35;43.07
63622;BME280;49770;47.544;19.074;2022-08-19T07:01:06;99862.91;;;30.40;42.30
63622;BME280;49770;47.544;19.074;2022-08-19T07:04:10;99862.63;;;30.48;42.82
63622;BME280;49770;47.544;19.074;2022-08-19T07:07:14;99861.84;;;30.41;42.36
63622;BME280;49770;47.544;19.074;2022-08-19T07:10:22;99869.84;;;30.10;43.31
63622;BME280;49770;47.544;19.074;2022-08-19T07:13:27;99875.34;;;30.36;43.44
63622;BME280;49770;47.544;19.074;2022-08-19T07:16:29;99873.28;;;30.96;42.72
63622;BME280;49770;47.544;19.074;2022-08-19T07:19:33;99881.44;;;30.77;44.74
63622;BME280;49770;47.544;19.074;2022-08-19T07:22:37;99888.13;;;30.49;43.46
63622;BME280;49770;47.544;19.074;2022-08-19T07:25:40;99895.22;;;30.24;44.19
63622;BME280;49770;47.544;19.074;2022-08-19T07:28:43;99894.75;;;30.34;43.51
63622;BME280;49770;47.544;19.074;2022-08-19T07:31:53;99884.31;;;30.11;44.82
63622;BME280;49770;47.544;19.074;2022-08-19T07:34:58;99886.28;;;30.75;43.19
63622;BME280;49770;47.544;19.074;2022-08-19T07:38:03;99883.31;;;30.76;43.51
63622;BME280;49770;47.544;19.074;2022-08-19T07:41:07;99885.28;;;31.20;42.34
63622;BME280;49770;47.544;19.074;2022-08-19T07:44:11;99877.56;;;31.36;41.44
63622;BME280;49770;47.544;19.074;2022-08-19T07:47:14;99878.78;;;31.77;40.98
63622;BME280;49770;47.544;19.074;2022-08-19T07:50:37;99882.94;;;31.86;40.51
63622;BME280;49770;47.544;19.074;2022-08-19T07:53:41;99874.53;;;32.31;37.90
63622;BME280;49770;47.544;19.074;2022-08-19T07:56:45;99873.22;;;32.33;37.57
63622;BME280;49770;47.544;19.074;2022-08-19T07:59:48;99883.81;;;32.30;36.06
63622;BME280;49770;47.544;19.074;2022-08-19T08:02:52;99873.56;;;32.56;36.52
63622;BME280;49770;47.544;19.074;2022-08-19T08:05:57;99873.28;;;32.88;34.93
63622;BME280;49770;47.544;19.074;2022-08-19T08:09:40;99866.03;;;33.05;34.30
63622;BME280;49770;47.544;19.074;2022-08-19T08:12:44;99866.00;;;33.94;33.02
63622;BME280;49770;47.544;19.074;2022-08-19T08:16:06;99857.66;;;34.30;31.92
63622;BME280;49770;47.544;19.074;2022-08-19T08:19:15;99859.34;;;34.19;31.86
63622;BME280;49770;47.544;19.074;2022-08-19T08:22:27;99868.81;;;34.40;30.80
63622;BME280;49770;47.544;19.074;2022-08-19T08:25:49;99878.09;;;34.05;32.04
63622;BME280;49770;47.544;19.074;2022-08-19T08:28:52;99879.37;;;34.03;31.54
63622;BME280;49770;47.544;19.074;2022-08-19T08:31:55;99885.66;;;34.27;31.88
63622;BME280;49770;47.544;19.074;2022-08-19T08:35:01;99871.19;;;34.49;31.36
63622;BME280;49770;47.544;19.074;2022-08-19T08:38:04;99859.62;;;34.64;30.96
63622;BME280;49770;47.544;19.074;2022-08-19T08:41:28;99867.88;;;35.15;29.91
63622;BME280;49770;47.544;19.074;2022-08-19T08:44:46;99863.75;;;35.35;29.56
63622;BME280;49770;47.544;19.074;2022-08-19T08:47:52;99865.53;;;35.64;28.58
63622;BME280;49770;47.544;19.074;2022-08-19T08:50:57;99872.00;;;35.97;27.93
63622;BME280;49770;47.544;19.074;2022-08-19T08:54:05;99861.22;;;36.18;27.79
63622;BME280;49770;47.544;19.074;2022-08-19T08:57:15;99853.31;;;36.92;26.78
63622;BME280;49770;47.544;19.074;2022-08-19T09:03:31;99834.25;;;37.33;25.90
63622;BME280;49770;47.544;19.074;2022-08-19T09:09:46;99840.22;;;37.15;26.52
63622;BME280;49770;47.544;19.074;2022-08-19T09:13:05;99836.62;;;37.14;26.31
63622;BME280;49770;47.544;19.074;2022-08-19T09:24:35;99840.16;;;36.72;26.24
63622;BME280;49770;47.544;19.074;2022-08-19T09:27:39;99835.84;;;36.81;26.89
63622;BME280;49770;47.544;19.074;2022-08-19T09:30:55;99832.91;;;37.52;25.67
63622;BME280;49770;47.544;19.074;2022-08-19T09:33:59;99821.53;;;38.07;24.85
63622;BME280;49770;47.544;19.074;2022-08-19T09:37:02;99828.75;;;38.49;24.54
63622;BME280;49770;47.544;19.074;2022-08-19T09:40:06;99820.41;;;38.08;25.38
63622;BME280;49770;47.544;19.074;2022-08-19T09:43:13;99819.91;;;38.47;24.48
63622;BME280;49770;47.544;19.074;2022-08-19T09:46:15;99809.16;;;37.56;25.26
63622;BME280;49770;47.544;19.074;2022-08-19T09:49:25;99797.72;;;37.31;25.81
63622;BME280;49770;47.544;19.074;2022-08-19T09:52:28;99802.37;;;37.95;24.24
63622;BME280;49770;47.544;19.074;2022-08-19T09:55:41;99795.19;;;37.94;24.36
63622;BME280;49770;47.544;19.074;2022-08-19T09:58:44;99792.19;;;38.37;24.11
63622;BME280;49770;47.544;19.074;2022-08-19T10:01:47;99788.72;;;39.33;23.01
63622;BME280;49770;47.544;19.074;2022-08-19T10:04:51;99774.38;;;39.11;22.68
63622;BME280;49770;47.544;19.074;2022-08-19T10:08:12;99780.84;;;40.07;21.82
63622;BME280;49770;47.544;19.074;2022-08-19T10:11:17;99773.13;;;40.38;21.25
63622;BME280;49770;47.544;19.074;2022-08-19T10:14:37;99779.84;;;40.62;21.03
63622;BME280;49770;47.544;19.074;2022-08-19T10:17:41;99774.78;;;39.44;22.43
63622;BME280;49770;47.544;19.074;2022-08-19T10:21:29;99780.97;;;39.25;22.38
63622;BME280;49770;47.544;19.074;2022-08-19T10:24:28;99784.06;;;39.79;22.81
63622;BME280;49770;47.544;19.074;2022-08-19T10:27:31;99771.59;;;39.16;22.73
63622;BME280;49770;47.544;19.074;2022-08-19T10:30:39;99759.88;;;39.34;23.07
63622;BME280;49770;47.544;19.074;2022-08-19T10:33:41;99766.53;;;39.33;22.88
63622;BME280;49770;47.544;19.074;2022-08-19T10:36:57;99766.56;;;39.79;22.38
63622;BME280;49770;47.544;19.074;2022-08-19T10:40:06;99768.44;;;40.28;21.88
63622;BME280;49770;47.544;19.074;2022-08-19T10:43:10;99761.03;;;40.83;21.00
63622;BME280;49770;47.544;19.074;2022-08-19T10:46:14;99764.75;;;40.98;20.57
63622;BME280;49770;47.544;19.074;2022-08-19T10:49:18;99765.47;;;42.10;19.40
63622;BME280;49770;47.544;19.074;2022-08-19T10:52:21;99756.66;;;41.69;19.71
63622;BME280;49770;47.544;19.074;2022-08-19T10:55:40;99764.75;;;41.66;20.00
63622;BME280;49770;47.544;19.074;2022-08-19T10:59:02;99759.97;;;39.69;22.07
63622;BME280;49770;47.544;19.074;2022-08-19T11:02:08;99766.72;;;39.53;22.57
63622;BME280;49770;47.544;19.074;2022-08-19T11:05:12;99759.47;;;38.75;22.45
63622;BME280;49770;47.544;19.074;2022-08-19T11:08:17;99752.03;;;38.71;22.64
63622;BME280;49770;47.544;19.074;2022-08-19T11:11:26;99759.81;;;38.53;23.42
63622;BME280;49770;47.544;19.074;2022-08-19T11:25:58;99756.87;;;39.20;22.24
63622;BME280;49770;47.544;19.074;2022-08-19T11:29:03;99758.41;;;38.66;23.00
63622;BME280;49770;47.544;19.074;2022-08-19T11:32:08;99751.72;;;37.94;23.59
63622;BME280;49770;47.544;19.074;2022-08-19T11:35:12;99751.50;;;38.37;23.34
63622;BME280;49770;47.544;19.074;2022-08-19T11:38:16;99748.16;;;38.35;23.37
63622;BME280;49770;47.544;19.074;2022-08-19T11:41:22;99745.66;;;38.65;22.61
63622;BME280;49770;47.544;19.074;2022-08-19T11:44:25;99750.91;;;37.94;23.62
63622;BME280;49770;47.544;19.074;2022-08-19T11:47:29;99756.69;;;37.87;23.45
63622;BME280;49770;47.544;19.074;2022-08-19T11:50:32;99751.50;;;38.06;23.28
63622;BME280;49770;47.544;19.074;2022-08-19T11:53:37;99742.87;;;38.02;23.57
63622;BME280;49770;47.544;19.074;2022-08-19T11:56:40;99737.66;;;38.53;22.84
63622;BME280;49770;47.544;19.074;2022-08-19T11:59:48;99742.37;;;38.11;23.12
63622;BME280;49770;47.544;19.074;2022-08-19T12:02:51;99731.00;;;38.23;22.90
63622;BME280;49770;47.544;19.074;2022-08-19T12:05:54;99727.97;;;38.24;23.02
63622;BME280;49770;47.544;19.074;2022-08-19T12:09:06;99718.22;;;37.85;23.47
63622;BME280;49770;47.544;19.074;2022-08-19T12:12:11;99714.94;;;37.88;23.54
63622;BME280;49770;47.544;19.074;2022-08-19T12:15:13;99721.53;;;38.71;22.79
63622;BME280;49770;47.544;19.074;2022-08-19T12:18:16;99716.31;;;38.48;22.60
63622;BME280;49770;47.544;19.074;2022-08-19T12:21:22;99711.59;;;37.92;24.31
63622;BME280;49770;47.544;19.074;2022-08-19T12:24:25;99726.28;;;38.39;22.95
63622;BME280;49770;47.544;19.074;2022-08-19T12:27:28;99714.34;;;38.64;22.22
63622;BME280;49770;47.544;19.074;2022-08-19T12:30:42;99716.88;;;38.29;22.32
63622;BME280;49770;47.544;19.074;2022-08-19T12:33:45;99710.75;;;38.01;23.02
63622;BME280;49770;47.544;19.074;2022-08-19T12:36:49;99727.09;;;37.82;23.32
63622;BME280;49770;47.544;19.074;2022-08-19T12:39:52;99721.03;;;38.01;23.35
63622;BME280;49770;47.544;19.074;2022-08-19T12:42:55;99719.06;;;38.27;23.27
63622;BME280;49770;47.544;19.074;2022-08-19T12:45:58;99709.13;;;38.32;22.83
63622;BME280;49770;47.544;19.074;2022-08-19T12:49:02;99707.16;;;37.65;22.95
63622;BME280;49770;47.544;19.074;2022-08-19T12:52:27;99706.31;;;37.69;23.60
63622;BME280;49770;47.544;19.074;2022-08-19T12:55:30;99702.91;;;37.36;24.06
63622;BME280;49770;47.544;19.074;2022-08-19T12:58:33;99696.56;;;36.77;24.44
63622;BME280;49770;47.544;19.074;2022-08-19T13:01:37;99684.22;;;37.00;24.39
63622;BME280;49770;47.544;19.074;2022-08-19T13:04:40;99687.09;;;37.21;23.61
63622;BME280;49770;47.544;19.074;2022-08-19T13:07:43;99685.19;;;37.32;23.57
63622;BME280;49770;47.544;19.074;2022-08-19T13:10:46;99679.19;;;37.71;23.76
63622;BME280;49770;47.544;19.074;2022-08-19T13:13:50;99691.62;;;37.69;22.65
63622;BME280;49770;47.544;19.074;2022-08-19T13:16:53;99691.13;;;37.77;22.90
63622;BME280;49770;47.544;19.074;2022-08-19T13:19:56;99689.44;;;37.66;22.62
63622;BME280;49770;47.544;19.074;2022-08-19T13:22:59;99691.56;;;37.43;23.44
63622;BME280;49770;47.544;19.074;2022-08-19T13:26:04;99690.75;;;37.42;23.07
63622;BME280;49770;47.544;19.074;2022-08-19T13:29:07;99682.72;;;37.41;23.70
63622;BME280;49770;47.544;19.074;2022-08-19T13:32:29;99663.88;;;37.22;23.64
63622;BME280;49770;47.544;19.074;2022-08-19T13:35:57;99665.81;;;37.21;23.69
63622;BME280;49770;47.544;19.074;2022-08-19T13:39:01;99674.00;;;37.01;23.91
63622;BME280;49770;47.544;19.074;2022-08-19T13:42:04;99675.94;;;36.52;24.97
63622;BME280;49770;47.544;19.074;2022-08-19T13:45:08;99666.81;;;36.46;24.58
63622;BME280;49770;47.544;19.074;2022-08-19T13:48:12;99667.63;;;37.00;24.44
63622;BME280;49770;47.544;19.074;2022-08-19T13:51:16;99670.41;;;37.00;23.58
63622;BME280;49770;47.544;19.074;2022-08-19T13:54:19;99666.09;;;36.61;24.53
63622;BME280;49770;47.544;19.074;2022-08-19T13:57:22;99658.16;;;36.70;24.39
63622;BME280;49770;47.544;19.074;2022-08-19T14:00:26;99647.84;;;37.14;23.46
63622;BME280;49770;47.544;19.074;2022-08-19T14:03:31;99642.06;;;37.36;23.37
63622;BME280;49770;47.544;19.074;2022-08-19T14:06:34;99640.75;;;37.59;22.81
63622;BME280;49770;47.544;19.074;2022-08-19T14:09:37;99640.75;;;37.70;23.19
63622;BME280;49770;47.544;19.074;2022-08-19T14:12:39;99651.81;;;37.59;23.73
63622;BME280;49770;47.544;19.074;2022-08-19T14:15:43;99677.06;;;37.04;24.84
63622;BME280;49770;47.544;19.074;2022-08-19T14:18:45;99676.06;;;35.64;29.42
63622;BME280;49770;47.544;19.074;2022-08-19T14:21:48;99673.41;;;35.47;30.63
63622;BME280;49770;47.544;19.074;2022-08-19T14:24:51;99690.34;;;34.89;31.62
63622;BME280;49770;47.544;19.074;2022-08-19T14:27:54;99685.69;;;33.69;34.04
63622;BME280;49770;47.544;19.074;2022-08-19T14:30:59;99689.97;;;33.94;33.88
63622;BME280;49770;47.544;19.074;2022-08-19T14:34:04;99684.56;;;33.53;34.62
63622;BME280;49770;47.544;19.074;2022-08-19T14:37:07;99684.03;;;33.39;34.78
63622;BME280;49770;47.544;19.074;2022-08-19T14:40:18;99697.63;;;32.93;35.14
63622;BME280;49770;47.544;19.074;2022-08-19T14:43:24;99690.47;;;33.04;35.26
63622;BME280;49770;47.544;19.074;2022-08-19T14:46:28;99688.94;;;32.72;35.87
63622;BME280;49770;47.544;19.074;2022-08-19T14:49:31;99683.50;;;31.94;37.04
63622;BME280;49770;47.544;19.074;2022-08-19T14:52:46;99685.78;;;32.09;36.98
63622;BME280;49770;47.544;19.074;2022-08-19T14:55:50;99685.47;;;32.29;36.86
63622;BME280;49770;47.544;19.074;2022-08-19T14:58:56;99699.72;;;31.65;37.70
